Latest Weather Observations for Portland Airport

IDV60801

Issued at 3:31 am EST Thursday 5 May 2016 (issued every 30 minutes, with the page automatically refreshed every 10 minutes)

About weather observations | Map of weather stations | Latest weather observations for VIC | Other Formats
Station Details ID: 090171 Name: CASHMORE AIRPORT Lat: -38.31 Lon: 141.47 Height: 80.9 m
Data from the previous 72 hours. | See also: Recent months at Portland Airport
Date/Time
EST
Temp
°C
App
Temp
°C
Dew
Point
Rel
Hum
%
Delta-T
°C
Wind Press
QNH
hPa
Press
MSL
hPa
Rain
since 9 am
mm
Dir
 
Spd
km/h
Gust
km/h
Spd
kts
Gust
kts
05/03:30am 14.3 9.9 10.3 77 2.1 NNW 24 35 13 19 1011.8 1011.9 0.2
05/03:00am 14.3 9.5 10.3 77 2.1 NNW 26 37 14 20 1011.9 1012.0 0.2
05/02:30am 14.5 9.3 10.1 75 2.3 NNW 28 41 15 22 1011.9 1012.0 0.2
05/02:00am 14.3 9.8 9.9 75 2.3 NNW 24 37 13 20 1011.9 1012.0 0.2
05/01:30am 13.9 8.9 9.7 76 2.2 NNW 26 37 14 20 1011.9 1012.0 0.2
05/01:00am 13.3 9.4 9.5 78 1.9 NNW 20 30 11 16 1012.2 1012.3 0.2
05/12:30am 13.3 9.0 9.5 78 1.9 NNW 22 32 12 17 1012.4 1012.4 0.2
05/12:00am 13.4 9.1 9.5 77 2.0 NNW 22 32 12 17 1012.6 1012.6 0.2
 
Date/Time
EST
Temp
°C
App
Temp
°C
Dew
Point
Rel
Hum
%
Delta-T
°C
Wind Press
QNH
hPa
Press
MSL
hPa
Rain
since 9 am
mm
Dir
 
Spd
km/h
Gust
km/h
Spd
kts
Gust
kts
04/11:30pm 13.2 9.3 9.3 77 2.0 NNW 20 32 11 17 1012.7 1012.7 0.2
04/11:00pm 13.2 9.3 9.3 77 2.0 NNW 20 28 11 15 1013.0 1013.0 0.2
04/10:30pm 13.4 8.7 9.3 76 2.1 NNW 24 33 13 18 1013.1 1013.1 0.2
04/10:00pm 13.1 8.8 9.2 77 2.0 NNW 22 32 12 17 1013.3 1013.3 0.2
04/09:30pm 13.3 8.5 9.0 75 2.2 NNW 24 33 13 18 1013.3 1013.3 0.2
04/09:00pm 13.6 9.2 8.9 73 2.4 NNW 22 35 12 19 1013.5 1013.5 0.2
04/08:30pm 13.1 9.0 8.6 74 2.3 NNW 20 32 11 17 1013.3 1013.3 0.2
04/08:00pm 13.1 9.0 8.6 74 2.3 NNW 20 30 11 16 1013.1 1013.1 0.2
04/07:30pm 12.8 9.7 8.9 77 2.0 NNW 15 20 8 11 1013.1 1013.1 0.2
04/07:00pm 12.7 9.7 9.3 80 1.7 NNW 15 20 8 11 1012.9 1012.9 0.2
04/06:30pm 12.8 10.2 9.3 79 1.8 NNW 13 17 7 9 1012.8 1012.8 0.2
04/06:00pm 13.4 10.3 8.7 73 2.4 NNW 15 20 8 11 1012.6 1012.6 0.2
04/05:30pm 13.8 10.3 8.8 72 2.5 NW 17 24 9 13 1012.4 1012.4 0.2
04/05:00pm 14.5 10.1 9.1 70 2.8 NW 22 37 12 20 1012.0 1012.1 0.2
04/04:30pm 14.6 10.9 9.4 71 2.7 NW 19 24 10 13 1011.9 1012.0 0.2
04/04:00pm 14.7 9.9 8.9 68 3.0 NW 24 33 13 18 1011.6 1011.7 0.2
04/03:30pm 14.8 8.3 8.1 64 3.4 NW 32 43 17 23 1011.7 1011.8 0.2
04/03:00pm 15.4 10.2 8.9 65 3.3 NW 26 37 14 20 1011.8 1011.9 0.2
04/02:30pm 15.0 9.3 8.5 65 3.3 NW 28 37 15 20 1011.7 1011.8 0.2
04/02:00pm 15.1 9.2 7.4 60 3.8 NW 28 43 15 23 1012.0 1012.1 0.2
04/01:30pm 14.4 8.3 8.1 66 3.2 NW 30 41 16 22 1012.4 1012.4 0.2
04/01:00pm 15.1 9.8 8.3 64 3.4 NNW 26 37 14 20 1012.7 1012.7 0.2
04/12:30pm 14.6 9.3 8.5 67 3.1 NNW 26 37 14 20 1013.2 1013.2 0.2
04/12:00pm 14.2 9.3 8.6 69 2.8 NNW 24 39 13 21 1013.6 1013.6 0.2
04/11:30am 13.7 9.2 8.7 72 2.5 NNW 22 35 12 19 1013.8 1013.8 0.2
04/11:00am 12.6 8.4 8.1 74 2.2 NW 20 28 11 15 1014.0 1014.0 0.2
04/10:30am 12.6 8.8 8.9 78 1.9 NNW 19 26 10 14 1013.8 1013.8 0.2
04/10:00am 11.0 7.4 8.4 84 1.3 NNW 17 22 9 12 1013.8 1013.8 0.2
04/09:30am 10.9 7.2 8.1 83 1.4 NW 17 22 9 12 1013.9 1013.9 0.2
04/09:00am 10.1 6.4 8.0 87 1.0 NNW 17 24 9 13 1013.5 1013.5 9.4
04/08:30am 9.3 4.9 7.3 87 0.9 NNW 20 30 11 16 1013.5 1013.5 9.4
04/08:00am 8.5 4.9 6.8 89 0.8 NNW 15 20 8 11 1013.0 1013.0 9.4
04/07:30am 7.9 4.2 6.4 90 0.7 N 15 19 8 10 1012.4 1012.4 9.2
04/07:00am 7.9 4.9 6.2 89 0.8 N 11 15 6 8 1012.0 1012.1 9.2
04/06:30am 8.2 4.5 6.3 88 0.9 N 15 20 8 11 1011.7 1011.8 9.2
04/06:00am 8.7 4.7 6.7 87 0.9 NNW 17 22 9 12 1011.4 1011.5 9.2
04/05:30am 9.0 5.7 6.6 85 1.1 NNW 13 19 7 10 1011.0 1011.1 9.2
04/05:00am 11.4 7.0 4.8 64 3.0 W 17 24 9 13 1010.7 1010.8 9.2
04/04:30am 11.6 5.7 4.1 60 3.4 W 24 33 13 18 1010.2 1010.3 9.2
04/04:00am 11.4 6.9 6.1 70 2.5 WNW 19 24 10 13 1010.2 1010.3 9.2
04/03:30am 10.5 6.0 6.3 75 2.0 WNW 19 24 10 13 1009.8 1009.8 9.2
04/03:00am 11.5 6.9 6.6 72 2.3 W 20 39 11 21 1009.9 1009.9 9.2
04/02:30am 10.9 5.5 6.3 73 2.2 WSW 24 35 13 19 1009.7 1009.7 9.2
04/02:00am 11.9 4.5 4.2 59 3.5 W 32 39 17 21 1009.3 1009.3 9.2
04/01:30am 12.2 5.0 4.9 61 3.4 W 32 44 17 24 1008.9 1008.9 9.2
04/01:02am 11.8 4.9 4.8 62 3.2 W 30 48 16 26 1008.6 1008.6 9.2
04/01:00am 11.8 4.5 4.5 61 3.3 W 32 48 17 26 1008.5 1008.5 9.2
04/12:54am 12.1 5.1 4.1 58 3.6 W 30 48 16 26 1008.4 1008.4 9.2
04/12:30am 11.6 4.3 4.6 62 3.2 W 32 43 17 23 1008.5 1008.5 9.2
04/12:00am 11.7 3.7 3.7 58 3.6 W 35 46 19 25 1008.4 1008.4 9.2
 
Date/Time
EST
Temp
°C
App
Temp
°C
Dew
Point
Rel
Hum
%
Delta-T
°C
Wind Press
QNH
hPa
Press
MSL
hPa
Rain
since 9 am
mm
Dir
 
Spd
km/h
Gust
km/h
Spd
kts
Gust
kts
03/11:48pm 11.7 4.2 4.4 61 3.3 W 33 52 18 28 1008.2 1008.2 9.2
03/11:30pm 11.6 4.1 4.3 61 3.3 W 33 44 18 24 1008.3 1008.3 9.2
03/11:15pm 11.6 4.6 4.1 60 3.4 W 30 54 16 29 1008.2 1008.2 9.2
03/11:00pm 11.0 4.8 6.0 71 2.3 W 28 39 15 21 1008.2 1008.2 9.2
03/10:38pm 11.8 4.6 6.1 68 2.7 W 33 52 18 28 1008.1 1008.1 9.2
03/10:30pm 11.1 5.2 6.0 71 2.4 W 26 37 14 20 1008.1 1008.1 9.2
03/10:00pm 11.4 3.7 5.3 66 2.8 W 35 48 19 26 1007.7 1007.7 9.2
03/09:30pm 11.1 3.8 5.6 69 2.5 W 33 48 18 26 1007.4 1007.4 9.2
03/09:00pm 11.3 3.7 5.8 69 2.6 W 35 46 19 25 1006.8 1006.8 9.0
03/08:30pm 10.7 4.0 7.2 79 1.7 W 32 41 17 22 1006.6 1006.6 9.0
03/08:02pm 11.3 4.0 7.2 76 2.0 W 35 57 19 31 1006.1 1006.1 9.0
03/08:00pm 11.2 3.8 6.9 75 2.1 W 35 48 19 26 1005.9 1005.9 9.0
03/07:46pm 10.3 3.9 7.0 80 1.6 WNW 30 50 16 27 1005.8 1005.8 9.0
03/07:36pm 9.9 3.7 7.7 86 1.1 WNW 30 41 16 22 1005.7 1005.7 9.0
03/07:30pm 9.9 2.7 7.7 86 1.1 WNW 35 56 19 30 1005.6 1005.6 9.0
03/07:16pm 10.3 3.0 7.4 82 1.4 WNW 35 69 19 37 1005.5 1005.5 8.4
03/07:14pm 11.5 4.8 7.4 76 2.0 WNW 32 56 17 30 1005.3 1005.3 7.6
03/07:00pm 10.8 3.8 6.7 76 2.0 WNW 33 50 18 27 1004.8 1004.8 7.6
03/06:32pm 10.8 2.5 7.7 81 1.5 W 41 61 22 33 1004.6 1004.6 7.4
03/06:30pm 10.8 2.4 7.3 79 1.7 W 41 61 22 33 1004.4 1004.4 7.4
03/06:18pm 11.7 5.3 6.8 72 2.3 W 30 48 16 26 1004.2 1004.2 7.2
03/06:00pm 11.3 3.8 6.4 72 2.3 W 35 48 19 26 1004.0 1004.0 7.2
03/05:32pm 12.3 4.5 4.8 60 3.4 WNW 35 54 19 29 1003.2 1003.2 7.2
03/05:30pm 12.4 5.3 6.2 66 2.9 WNW 33 48 18 26 1003.3 1003.3 7.2
03/05:05pm 12.5 5.3 6.1 65 3.0 W 33 52 18 28 1002.8 1002.8 7.2
03/05:00pm 12.2 5.0 6.0 66 2.9 W 33 46 18 25 1002.9 1002.9 7.2
03/04:30pm 12.2 5.2 6.0 66 2.9 W 32 44 17 24 1002.3 1002.3 7.2
03/04:00pm 12.4 4.1 6.2 66 3.0 WSW 39 57 21 31 1001.9 1001.9 7.2
03/03:40pm 13.4 3.9 4.8 56 4.0 W 44 63 24 34 1001.5 1001.5 7.2
03/03:30pm 13.1 2.6 3.5 52 4.3 W 48 63 26 34 1001.3 1001.3 7.2
03/03:02pm 13.0 3.7 5.7 61 3.4 W 44 63 24 34 1000.7 1000.7 7.2
03/03:00pm 13.0 3.8 6.4 64 3.2 W 44 57 24 31 1000.8 1000.8 7.2
03/02:30pm 12.8 4.2 6.4 65 3.1 W 41 61 22 33 1000.3 1000.3 7.2
03/02:13pm 10.9 -0.1 7.0 77 1.9 W 54 74 29 40 1000.2 1000.2 7.2
03/02:10pm 11.2 0.6 7.1 76 2.0 W 52 74 28 40 1000.1 1000.1 7.2
03/02:00pm 13.4 5.0 7.2 66 3.0 W 41 65 22 35 999.8 999.8 7.0
03/01:30pm 12.7 4.3 9.0 78 1.9 W 43 63 23 34 999.6 999.5 7.0
03/01:01pm 13.0 5.3 8.7 75 2.2 W 39 61 21 33 999.0 999.0 7.0
03/01:00pm 13.0 5.8 9.3 78 1.9 W 37 59 20 32 999.0 999.0 7.0
03/12:42pm 12.6 5.2 10.0 84 1.3 W 39 65 21 35 999.2 999.2 6.6
03/12:32pm 13.4 6.1 10.2 81 1.7 W 39 57 21 31 999.1 999.1 6.0
03/12:30pm 13.4 5.7 10.2 81 1.7 W 41 57 22 31 999.2 999.2 6.0
03/12:14pm 13.1 5.6 10.8 86 1.2 W 41 54 22 29 999.1 999.1 6.0
03/12:00pm 12.9 5.1 11.3 90 0.9 W 43 61 23 33 998.5 998.5 6.0
03/11:38am 13.5 6.4 12.2 92 0.7 WNW 41 65 22 35 998.1 998.1 5.2
03/11:32am 12.9 4.6 11.5 91 0.7 W 46 65 25 35 998.0 998.0 5.2
03/11:30am 13.0 4.8 11.6 91 0.7 W 46 57 25 31 998.1 998.1 5.0
03/11:24am 13.3 6.3 11.4 88 1.0 WNW 39 56 21 30 997.9 997.9 4.4
03/11:18am 13.8 7.9 11.3 85 1.3 WNW 33 52 18 28 997.6 997.6 3.8
03/11:00am 13.7 8.8 12.4 92 0.7 WNW 30 41 16 22 997.8 997.8 3.8
03/10:32am 13.3 8.5 11.7 90 0.9 WNW 28 52 15 28 997.6 997.6 3.0
03/10:30am 14.0 9.9 12.6 91 0.8 NW 26 33 14 18 997.4 997.4 2.2
03/10:23am 14.2 9.6 12.4 89 1.0 NW 28 39 15 21 997.0 997.0 0.4
03/10:00am 14.4 9.8 12.4 88 1.1 WNW 28 39 15 21 997.1 997.1 0.4
03/09:58am 14.6 9.8 12.8 89 1.0 WNW 30 43 16 23 997.0 997.0 0.4
03/09:52am 14.6 9.8 13.0 90 0.9 NW 30 43 16 23 997.1 997.1 0.4
03/09:30am 14.1 9.7 12.8 92 0.7 WNW 28 39 15 21 997.4 997.4 0.4
03/09:18am 14.1 9.3 12.8 92 0.7 WNW 30 48 16 26 997.4 997.4 0.2
03/09:00am 14.1 8.7 12.8 92 0.7 NW 33 50 18 27 997.3 997.3 8.2
03/08:45am 14.0 8.2 12.6 91 0.8 WNW 35 48 19 26 997.1 997.1 8.0
03/08:34am 14.1 7.5 12.7 91 0.8 NW 39 54 21 29 997.1 997.1 7.6
03/08:32am 14.1 7.9 12.7 91 0.8 NW 37 54 20 29 997.1 997.1 7.6
03/08:30am 14.0 7.8 12.6 91 0.8 WNW 37 54 20 29 997.1 997.1 7.6
03/08:09am 14.1 8.3 12.7 91 0.8 WNW 35 54 19 29 997.0 997.0 7.6
03/08:06am 14.2 8.0 12.6 90 0.9 NW 37 52 20 28 996.9 996.9 7.4
03/08:00am 14.3 7.2 12.3 88 1.1 NW 41 54 22 29 996.7 996.7 7.0
03/07:30am 13.9 7.1 11.9 88 1.1 NW 39 59 21 32 996.5 996.5 7.0
03/07:26am 13.8 7.0 12.0 89 1.0 NW 39 59 21 32 996.6 996.6 7.0
03/07:23am 13.7 6.9 12.1 90 0.9 NW 39 50 21 27 996.7 996.7 7.0
03/07:20am 13.7 7.0 12.3 91 0.8 NW 39 50 21 27 996.8 996.8 7.0
03/07:02am 14.1 7.3 13.0 93 0.6 WNW 41 61 22 33 996.9 996.9 6.6
03/07:00am 14.2 7.4 13.1 93 0.6 WNW 41 57 22 31 996.9 996.9 6.4
03/06:57am 14.5 8.2 13.4 93 0.6 WNW 39 57 21 31 997.1 997.1 6.0
03/06:32am 14.5 8.8 13.0 91 0.8 NW 35 54 19 29 996.1 996.1 1.4
03/06:30am 14.6 8.9 13.1 91 0.8 NW 35 54 19 29 996.1 996.1 1.4
03/06:00am 14.7 8.3 13.1 90 0.9 NW 39 63 21 34 996.2 996.2 1.4
03/05:30am 14.4 8.6 12.8 90 0.9 NNW 35 54 19 29 996.4 996.4 1.2
03/05:00am 14.3 8.9 12.9 91 0.8 NNW 33 54 18 29 996.6 996.6 1.2
03/04:41am 14.3 8.9 12.9 91 0.8 NNW 33 52 18 28 996.6 996.6 1.2
03/04:31am 14.3 8.2 12.9 91 0.8 NNW 37 59 20 32 996.8 996.8 1.2
03/04:30am 14.4 8.7 13.0 91 0.8 NNW 35 52 19 28 996.9 996.9 1.2
03/04:12am 14.5 8.4 12.9 90 0.9 NNW 37 59 20 32 997.0 997.0 0.8
03/04:00am 14.6 8.4 12.6 88 1.1 NNW 37 57 20 31 996.9 996.9 0.8
03/03:36am 14.5 8.4 12.9 90 0.9 NW 37 59 20 32 997.4 997.4 0.6
03/03:30am 14.3 8.9 12.9 91 0.8 NNW 33 50 18 27 997.5 997.5 0.6
03/03:23am 14.3 9.0 13.0 92 0.7 NNW 33 48 18 26 997.7 997.7 0.6
03/03:22am 14.2 8.8 12.9 92 0.7 NNW 33 48 18 26 997.6 997.6 0.6
03/03:12am 14.2 8.8 12.9 92 0.7 NNW 33 44 18 24 997.7 997.7 0.6
03/03:00am 14.4 7.9 13.0 91 0.8 NNW 39 57 21 31 997.8 997.8 0.4
03/02:57am 14.4 7.9 12.8 90 0.9 NNW 39 57 21 31 998.0 998.0 0.4
03/02:40am 14.5 8.7 12.7 89 1.0 NNW 35 54 19 29 998.6 998.6 0.2
03/02:39am 14.6 8.8 12.8 89 1.0 NNW 35 54 19 29 998.6 998.6 0.2
03/02:36am 14.7 8.9 12.7 88 1.1 NNW 35 54 19 29 998.6 998.6 0.2
03/02:30am 14.7 8.1 12.6 87 1.2 NNW 39 56 21 30 998.5 998.5 0.2
03/02:12am 14.5 9.2 12.5 88 1.1 NNW 32 50 17 27 999.0 999.0 0.2
03/02:00am 14.4 9.1 12.4 88 1.1 NNW 32 46 17 25 999.2 999.2 0.2
03/01:43am 14.2 9.6 12.4 89 1.0 NNW 28 41 15 22 999.4 999.4 0.2
03/01:30am 14.3 9.3 12.3 88 1.1 NNW 30 44 16 24 999.4 999.4 0.2
03/01:27am 14.3 9.3 12.3 88 1.1 NNW 30 46 16 25 999.6 999.5 0.2
03/01:00am 15.1 9.0 11.7 80 1.9 NNW 35 59 19 32 999.7 999.6 0.0
03/12:34am 15.3 9.1 11.5 78 2.1 NNW 35 57 19 31 1000.0 1000.0 0.0
03/12:30am 15.3 9.1 11.5 78 2.1 NNW 35 50 19 27 1000.1 1000.1 0.0
03/12:00am 15.3 8.7 11.5 78 2.1 NNW 37 57 20 31 1000.2 1000.2 0.0
 
Date/Time
EST
Temp
°C
App
Temp
°C
Dew
Point
Rel
Hum
%
Delta-T
°C
Wind Press
QNH
hPa
Press
MSL
hPa
Rain
since 9 am
mm
Dir
 
Spd
km/h
Gust
km/h
Spd
kts
Gust
kts
02/11:30pm 15.4 9.1 11.2 76 2.3 NNW 35 54 19 29 1000.8 1000.8 0.0
02/11:02pm 15.3 9.0 11.1 76 2.2 NNW 35 56 19 30 1001.2 1001.2 0.0
02/11:00pm 15.2 9.3 11.2 77 2.2 NNW 33 50 18 27 1001.4 1001.4 0.0
02/10:30pm 15.1 9.2 11.1 77 2.1 NNW 33 54 18 29 1001.9 1001.9 0.0
02/10:00pm 15.4 9.7 11.2 76 2.3 NNW 32 50 17 27 1002.2 1002.2 0.0
02/09:30pm 14.9 9.1 10.9 77 2.1 NNW 32 50 17 27 1002.5 1002.5 0.0
02/09:04pm 15.0 8.9 10.6 75 2.3 NNW 33 54 18 29 1002.6 1002.6 0.0
02/09:00pm 14.9 8.8 10.5 75 2.3 NNW 33 48 18 26 1002.7 1002.7 0.0
02/08:31pm 15.1 9.3 10.7 75 2.3 NNW 32 50 17 27 1003.0 1003.0 0.0
02/08:30pm 15.0 9.1 10.6 75 2.3 NNW 32 44 17 24 1003.0 1003.0 0.0
02/08:10pm 14.9 9.0 10.5 75 2.3 NNW 32 57 17 31 1003.2 1003.2 0.0
02/08:00pm 15.0 9.1 10.4 74 2.4 NNW 32 48 17 26 1003.5 1003.5 0.0
02/07:30pm 15.3 9.2 10.3 72 2.6 NNW 33 57 18 31 1003.9 1003.9 0.0
02/07:04pm 15.1 9.2 10.3 73 2.5 NNW 32 50 17 27 1003.8 1003.8 0.0
02/07:00pm 15.2 9.1 10.4 73 2.5 NNW 33 50 18 27 1003.8 1003.8 0.0
02/06:31pm 15.1 9.0 10.5 74 2.4 NNW 33 52 18 28 1003.7 1003.7 0.0
02/06:30pm 15.0 9.1 10.4 74 2.4 NNW 32 46 17 25 1003.8 1003.8 0.0
02/06:13pm 14.8 8.9 10.6 76 2.2 NNW 32 50 17 27 1003.8 1003.8 0.0
02/06:00pm 14.9 9.1 10.7 76 2.2 NNW 32 46 17 25 1004.1 1004.1 0.0
02/05:30pm 15.7 9.0 9.8 68 3.1 NW 35 54 19 29 1003.9 1003.9 0.0
02/05:00pm 16.5 9.4 9.7 64 3.6 NW 37 61 20 33 1003.8 1003.8 0.0
02/04:31pm 16.4 10.3 9.8 65 3.5 NW 32 54 17 29 1004.1 1004.1 0.0
02/04:30pm 16.3 10.2 9.9 66 3.4 NW 32 46 17 25 1004.1 1004.1 0.0
02/04:12pm 16.5 11.4 10.6 68 3.1 NNW 28 46 15 25 1004.1 1004.1 0.0
02/04:00pm 16.6 11.6 10.9 69 3.1 NNW 28 44 15 24 1004.1 1004.1 0.0
02/03:30pm 16.8 11.1 11.1 69 3.1 NNW 32 52 17 28 1004.3 1004.3 0.0
02/03:02pm 17.2 11.2 10.8 66 3.4 NNW 33 54 18 29 1004.5 1004.5 0.0
02/03:00pm 17.2 11.1 10.6 65 3.6 NNW 33 50 18 27 1004.6 1004.6 0.0
02/02:30pm 16.7 10.1 10.1 65 3.5 NNW 35 57 19 31 1004.9 1004.9 0.0
02/02:00pm 16.9 10.7 10.1 64 3.6 NW 33 52 18 28 1005.4 1005.4 0.0
02/01:30pm 16.6 9.8 9.3 62 3.8 NW 35 57 19 31 1005.8 1005.8 0.0
02/01:10pm 16.2 10.4 9.6 65 3.4 NNW 30 48 16 26 1006.1 1006.1 0.0
02/01:00pm 15.6 9.7 9.1 65 3.4 NNW 30 46 16 25 1006.2 1006.2 0.0
02/12:55pm 15.7 10.3 9.4 66 3.3 NNW 28 46 15 25 1006.3 1006.3 0.0
02/12:30pm 15.7 9.9 9.6 67 3.2 NNW 30 46 16 25 1006.8 1006.8 0.0
02/12:00pm 16.4 9.7 9.8 65 3.5 NNW 35 57 19 31 1007.1 1007.1 0.0
02/11:30am 15.2 8.9 8.9 66 3.2 NNW 32 54 17 29 1007.6 1007.6 0.0
02/11:00am 14.6 7.6 8.5 67 3.1 NNW 35 56 19 30 1008.0 1008.0 0.0
02/10:38am 14.3 7.8 8.3 67 3.0 NNW 32 54 17 29 1008.0 1008.0 0.0
02/10:30am 14.1 7.5 8.5 69 2.8 NNW 33 48 18 26 1008.2 1008.2 0.0
02/10:00am 13.6 7.2 8.7 72 2.5 NNW 32 50 17 27 1008.6 1008.6 0.0
02/09:32am 13.0 7.3 8.3 73 2.3 NNW 28 50 15 27 1008.6 1008.6 0.0
02/09:30am 12.9 7.2 8.2 73 2.3 NNW 28 43 15 23 1008.6 1008.6 0.0
02/09:00am 12.0 6.1 7.7 75 2.1 NNW 28 46 15 25 1009.1 1009.1 1.4
02/08:30am 11.0 5.6 7.9 81 1.5 NNW 26 39 14 21 1009.3 1009.3 1.4
02/08:00am 10.0 5.7 7.8 86 1.1 NNW 20 33 11 18 1009.6 1009.6 1.4
02/07:30am 9.8 5.5 7.7 87 1.0 N 20 35 11 19 1009.7 1009.7 1.4
02/07:00am 9.9 4.8 7.7 86 1.1 NNW 24 35 13 19 1010.0 1010.1 1.4
02/06:30am 9.5 4.3 7.4 87 1.0 NNW 24 33 13 18 1010.2 1010.3 1.4
02/06:00am 9.6 5.5 7.7 88 0.9 NNW 19 30 10 16 1010.4 1010.5 1.4
02/05:30am 9.8 6.1 7.9 88 0.9 NNW 17 26 9 14 1010.9 1011.0 1.4
02/05:00am 9.7 6.0 7.8 88 0.9 NNW 17 26 9 14 1011.2 1011.3 1.4
02/04:30am 9.6 5.5 7.7 88 0.9 NNW 19 26 10 14 1011.0 1011.1 1.4
02/04:00am 9.7 5.3 7.6 87 1.0 NNW 20 28 11 15 1011.1 1011.2 1.4

Other Formats:

Comma delimited format used in spreadsheet applications
http://www.bom.gov.au/fwo/IDV60801/IDV60801.94828.axf

JavaScript Object Notation format (JSON) in row-major order
http://www.bom.gov.au/fwo/IDV60801/IDV60801.94828.json